createdAt,value
2022-12-07T00:01:08.385Z,2.82
2022-12-07T00:03:36.883Z,2.62
2022-12-07T00:06:06.042Z,2.60
2022-12-07T00:08:36.174Z,2.53
2022-12-07T00:11:05.045Z,2.52
2022-12-07T00:13:33.711Z,2.58
2022-12-07T00:16:03.161Z,2.54
2022-12-07T00:18:31.108Z,2.55
2022-12-07T00:21:02.635Z,2.58
2022-12-07T00:23:30.735Z,2.59
2022-12-07T00:26:05.610Z,2.52
2022-12-07T00:28:34.589Z,2.47
2022-12-07T00:31:04.841Z,2.52
2022-12-07T00:33:32.800Z,2.49
2022-12-07T00:36:00.999Z,2.50
2022-12-07T00:38:30.785Z,2.48
2022-12-07T00:41:01.223Z,2.47
2022-12-07T00:43:29.773Z,2.45
2022-12-07T00:45:58.124Z,2.40
2022-12-07T00:48:26.473Z,2.37
2022-12-07T00:50:54.494Z,2.45
2022-12-07T00:53:22.426Z,2.41
2022-12-07T00:55:50.347Z,2.36
2022-12-07T00:58:19.600Z,2.44
2022-12-07T01:00:47.851Z,2.44
2022-12-07T01:03:16.854Z,2.31
2022-12-07T01:05:51.852Z,2.37
2022-12-07T01:08:19.843Z,2.39
2022-12-07T01:10:48.287Z,2.42
2022-12-07T01:13:16.837Z,2.33
2022-12-07T01:15:46.691Z,2.47
2022-12-07T01:18:14.617Z,2.42
2022-12-07T01:20:42.515Z,2.43
2022-12-07T01:23:10.415Z,2.49
2022-12-07T01:25:38.362Z,2.40
2022-12-07T01:28:06.364Z,2.31
2022-12-07T01:30:34.326Z,2.28
2022-12-07T01:33:03.652Z,2.32
2022-12-07T01:35:31.568Z,2.28
2022-12-07T01:37:59.474Z,2.35
2022-12-07T01:40:27.435Z,2.33
2022-12-07T01:42:55.452Z,2.38
2022-12-07T01:45:40.258Z,2.44
2022-12-07T01:48:11.205Z,2.45
2022-12-07T01:50:40.438Z,2.50
2022-12-07T01:53:09.328Z,2.43
2022-12-07T01:55:40.620Z,2.33
2022-12-07T01:58:09.104Z,2.44
2022-12-07T02:00:37.022Z,2.40
2022-12-07T02:03:07.882Z,2.44
2022-12-07T02:05:39.695Z,2.42
2022-12-07T02:08:07.741Z,2.41
2022-12-07T02:10:35.711Z,2.42
2022-12-07T02:13:07.232Z,2.40
2022-12-07T02:15:44.374Z,2.42
2022-12-07T02:18:18.818Z,2.40
2022-12-07T02:20:54.954Z,2.41
2022-12-07T02:23:43.983Z,2.37
2022-12-07T02:26:50.266Z,2.43
2022-12-07T02:29:23.876Z,2.40
2022-12-07T02:32:01.886Z,2.47
2022-12-07T02:34:36.876Z,2.40
2022-12-07T02:37:12.468Z,2.39
2022-12-07T02:39:45.091Z,2.44
2022-12-07T02:42:17.868Z,2.40
2022-12-07T02:44:48.105Z,2.50
2022-12-07T02:47:19.146Z,2.60
2022-12-07T02:49:47.301Z,2.57
2022-12-07T02:52:15.195Z,2.49
2022-12-07T02:54:43.059Z,2.50
2022-12-07T02:57:38.600Z,2.41
2022-12-07T03:00:09.900Z,2.39
2022-12-07T03:02:43.803Z,2.41
2022-12-07T03:05:25.557Z,2.43
2022-12-07T03:07:58.720Z,2.49
2022-12-07T03:10:30.814Z,2.40
2022-12-07T03:13:05.669Z,2.39
2022-12-07T03:15:38.307Z,2.48
2022-12-07T03:18:07.601Z,2.58
2022-12-07T03:20:38.287Z,2.58
2022-12-07T03:23:06.851Z,2.46
2022-12-07T03:25:36.492Z,2.60
2022-12-07T03:28:06.316Z,2.47
2022-12-07T03:30:40.941Z,2.59
2022-12-07T03:33:12.372Z,2.71
2022-12-07T03:35:42.828Z,2.55
2022-12-07T03:38:15.878Z,2.62
2022-12-07T03:40:47.331Z,2.53
2022-12-07T03:43:16.276Z,2.60
2022-12-07T03:45:47.844Z,2.55
2022-12-07T03:48:19.407Z,2.51
2022-12-07T03:50:51.295Z,2.42
2022-12-07T03:53:21.928Z,2.39
2022-12-07T03:55:50.803Z,2.41
2022-12-07T03:58:20.437Z,2.45
2022-12-07T04:00:50.223Z,2.39
2022-12-07T04:03:18.332Z,2.36
2022-12-07T04:05:46.870Z,2.34
2022-12-07T04:08:14.796Z,2.33
2022-12-07T04:10:42.716Z,2.69
2022-12-07T04:13:10.584Z,2.66
2022-12-07T04:15:38.536Z,2.55
2022-12-07T04:18:07.854Z,2.53
2022-12-07T04:20:35.742Z,2.66
2022-12-07T04:23:03.784Z,2.53
2022-12-07T04:25:31.667Z,2.55
2022-12-07T04:27:59.624Z,2.71
2022-12-07T04:30:27.646Z,2.53
2022-12-07T04:32:55.504Z,2.55
2022-12-07T04:35:24.783Z,2.47
2022-12-07T04:37:52.681Z,2.47
2022-12-07T04:40:20.580Z,2.47
2022-12-07T04:42:48.552Z,2.62
2022-12-07T04:45:16.460Z,2.49
2022-12-07T04:47:44.377Z,2.42
2022-12-07T04:50:12.735Z,2.44
2022-12-07T04:52:41.987Z,2.42
2022-12-07T04:55:10.231Z,2.50
2022-12-07T04:57:38.109Z,2.51
2022-12-07T05:00:07.153Z,2.48
2022-12-07T05:02:35.065Z,2.48
2022-12-07T05:05:03.012Z,2.58
2022-12-07T05:07:30.919Z,2.54
2022-12-07T05:10:00.694Z,2.58
2022-12-07T05:12:28.835Z,2.67
2022-12-07T05:14:56.784Z,2.61
2022-12-07T05:17:24.659Z,2.59
2022-12-07T05:19:52.547Z,2.54
2022-12-07T05:22:20.408Z,2.68
2022-12-07T05:24:48.327Z,2.62
2022-12-07T05:27:17.614Z,2.67
2022-12-07T05:29:55.912Z,2.52
2022-12-07T05:32:23.846Z,2.57
2022-12-07T05:34:51.733Z,2.47
2022-12-07T05:37:19.606Z,2.54
2022-12-07T05:39:47.565Z,2.53
2022-12-07T05:42:17.529Z,2.49
2022-12-07T05:44:47.427Z,2.67
2022-12-07T05:47:16.871Z,2.59
2022-12-07T05:49:44.790Z,2.67
2022-12-07T05:52:12.713Z,2.69
2022-12-07T05:54:40.740Z,2.58
2022-12-07T05:57:08.611Z,2.53
2022-12-07T05:59:36.939Z,2.44
2022-12-07T06:02:06.914Z,2.48
2022-12-07T06:04:37.533Z,2.57
2022-12-07T06:07:06.032Z,2.66
2022-12-07T06:09:34.237Z,2.64
2022-12-07T06:12:19.957Z,2.38
2022-12-07T06:14:49.224Z,2.47
2022-12-07T06:17:17.533Z,2.47
2022-12-07T06:19:45.498Z,2.59
2022-12-07T06:22:13.743Z,2.62
2022-12-07T06:24:42.278Z,2.54
2022-12-07T06:27:11.171Z,2.49
2022-12-07T06:29:39.127Z,2.44
2022-12-07T06:32:08.776Z,2.48
2022-12-07T06:34:37.161Z,2.24
2022-12-07T06:37:05.282Z,2.17
2022-12-07T06:39:33.196Z,2.17
2022-12-07T06:42:01.280Z,2.52
2022-12-07T06:44:29.194Z,2.31
2022-12-07T06:47:24.618Z,2.26
2022-12-07T06:49:46.828Z,2.17
2022-12-07T06:52:14.733Z,2.41
2022-12-07T06:54:42.697Z,2.29
2022-12-07T06:57:10.712Z,2.27
2022-12-07T06:59:38.981Z,2.26
2022-12-07T07:02:07.183Z,2.49
2022-12-07T07:04:35.355Z,2.40
2022-12-07T07:07:04.691Z,2.37
2022-12-07T07:09:32.580Z,2.27
2022-12-07T07:12:00.469Z,2.35
2022-12-07T07:14:28.412Z,2.36
2022-12-07T07:16:56.437Z,2.39
2022-12-07T07:19:24.532Z,2.21
2022-12-07T07:21:52.431Z,2.30
2022-12-07T07:24:21.971Z,2.35
2022-12-07T07:26:49.881Z,2.41
2022-12-07T07:29:17.880Z,2.32
2022-12-07T07:31:45.791Z,2.30
2022-12-07T07:34:13.744Z,2.24
2022-12-07T07:36:41.971Z,2.37
2022-12-07T07:39:09.879Z,2.28
2022-12-07T07:41:39.148Z,2.31
2022-12-07T07:44:07.093Z,2.43
2022-12-07T07:46:35.256Z,2.16
2022-12-07T07:49:03.228Z,2.36
2022-12-07T07:51:31.127Z,2.15
2022-12-07T07:53:59.012Z,2.19
2022-12-07T07:56:26.930Z,2.15
2022-12-07T07:58:56.857Z,2.21
2022-12-07T08:01:24.761Z,2.22
2022-12-07T08:03:52.740Z,2.11
2022-12-07T08:06:20.602Z,2.09
2022-12-07T08:08:48.508Z,1.94
2022-12-07T08:11:16.416Z,2.00
2022-12-07T08:13:44.456Z,2.01
2022-12-07T08:16:13.837Z,2.14
2022-12-07T08:18:42.673Z,2.25
2022-12-07T08:21:13.900Z,2.50
2022-12-07T08:23:42.023Z,2.67
2022-12-07T08:26:11.521Z,2.87
2022-12-07T08:28:39.547Z,3.26
2022-12-07T08:31:09.585Z,3.40
2022-12-07T08:33:39.696Z,3.38
2022-12-07T08:36:10.216Z,3.67
2022-12-07T08:38:38.518Z,3.77
2022-12-07T08:41:06.884Z,3.62
2022-12-07T08:43:35.443Z,3.55
2022-12-07T08:46:09.010Z,3.24
2022-12-07T08:48:41.468Z,3.33
2022-12-07T08:51:09.671Z,3.31
2022-12-07T08:53:38.060Z,3.36
2022-12-07T08:56:06.797Z,3.45
2022-12-07T08:58:35.191Z,3.16
2022-12-07T09:01:03.150Z,3.02
2022-12-07T09:03:31.242Z,3.04
2022-12-07T09:06:01.213Z,2.96
2022-12-07T09:08:31.443Z,2.90
2022-12-07T09:10:59.362Z,2.82
2022-12-07T09:13:27.267Z,2.73
2022-12-07T09:15:55.191Z,2.80
2022-12-07T09:18:23.128Z,2.78
2022-12-07T09:20:51.113Z,2.78
2022-12-07T09:23:20.628Z,2.75
2022-12-07T09:25:48.535Z,2.78
2022-12-07T09:28:16.484Z,2.83
2022-12-07T09:31:21.782Z,2.97
2022-12-07T09:33:36.090Z,2.84
2022-12-07T09:36:06.082Z,2.81
2022-12-07T09:38:36.471Z,2.75
2022-12-07T09:41:08.007Z,2.82
2022-12-07T09:43:37.724Z,2.88
2022-12-07T09:46:06.155Z,3.01
2022-12-07T09:48:36.643Z,2.88
2022-12-07T09:51:05.994Z,2.95
2022-12-07T09:53:36.633Z,2.94
2022-12-07T09:56:04.948Z,2.97
2022-12-07T09:58:34.388Z,2.96
2022-12-07T10:01:07.572Z,2.93
2022-12-07T10:03:37.543Z,2.81
2022-12-07T10:06:06.832Z,2.93
2022-12-07T10:08:36.267Z,3.04
2022-12-07T10:11:05.568Z,2.81
2022-12-07T10:13:37.943Z,2.75
2022-12-07T10:16:07.553Z,2.89
2022-12-07T10:18:37.841Z,3.02
2022-12-07T10:21:12.377Z,3.23
2022-12-07T10:23:42.717Z,3.24
2022-12-07T10:26:29.730Z,3.43
2022-12-07T10:28:58.019Z,3.39
2022-12-07T10:31:26.042Z,3.61
2022-12-07T10:33:56.559Z,3.32
2022-12-07T10:36:27.101Z,3.43
2022-12-07T10:39:02.859Z,3.25
2022-12-07T10:41:30.943Z,3.33
2022-12-07T10:43:59.590Z,3.20
2022-12-07T10:46:47.985Z,3.07
2022-12-07T10:49:48.588Z,3.14
2022-12-07T10:52:22.730Z,3.21
2022-12-07T10:55:03.679Z,3.41
2022-12-07T10:57:40.019Z,3.52
2022-12-07T11:00:15.512Z,3.59
2022-12-07T11:02:56.610Z,3.66
2022-12-07T11:05:28.993Z,3.88
2022-12-07T11:08:03.315Z,4.01
2022-12-07T11:10:40.867Z,3.90
2022-12-07T11:13:28.653Z,4.02
2022-12-07T11:16:10.317Z,4.16
2022-12-07T11:18:44.035Z,4.20
2022-12-07T11:21:17.183Z,4.24
2022-12-07T11:23:50.693Z,4.18
2022-12-07T11:26:27.935Z,4.11
2022-12-07T11:29:08.689Z,3.90
2022-12-07T11:31:45.680Z,3.99
2022-12-07T11:34:20.154Z,3.94
2022-12-07T11:36:51.017Z,4.10
2022-12-07T11:39:25.262Z,4.07
2022-12-07T11:41:57.466Z,4.10
2022-12-07T11:44:32.029Z,4.17
2022-12-07T11:47:03.285Z,4.32
2022-12-07T11:49:42.634Z,4.00
2022-12-07T11:52:19.293Z,4.12
2022-12-07T11:54:47.963Z,4.16
2022-12-07T11:57:21.886Z,3.90
2022-12-07T11:59:53.304Z,3.90
2022-12-07T12:02:25.306Z,4.11
2022-12-07T12:04:56.886Z,3.96
2022-12-07T12:10:22.040Z,3.86
2022-12-07T12:16:42.336Z,3.75
2022-12-07T12:19:22.017Z,3.98
2022-12-07T12:21:54.236Z,4.01
2022-12-07T12:24:28.592Z,3.87
2022-12-07T12:27:03.965Z,3.86
2022-12-07T12:29:36.036Z,3.75
2022-12-07T12:32:11.263Z,3.79
2022-12-07T12:34:50.059Z,3.81
2022-12-07T12:37:45.775Z,3.90
2022-12-07T12:40:51.004Z,3.77
2022-12-07T12:43:51.875Z,3.71
2022-12-07T12:46:52.163Z,3.66
2022-12-07T12:49:37.891Z,3.73
2022-12-07T12:52:48.994Z,3.46
2022-12-07T12:55:22.361Z,3.16
2022-12-07T12:58:28.832Z,3.22
2022-12-07T13:01:30.007Z,3.25
2022-12-07T13:03:59.774Z,3.22
2022-12-07T13:06:39.198Z,3.17
2022-12-07T13:09:16.594Z,3.11
2022-12-07T13:11:46.606Z,3.33
2022-12-07T13:14:56.897Z,3.50
2022-12-07T13:18:05.780Z,3.28
2022-12-07T13:20:56.120Z,3.38
2022-12-07T13:23:30.139Z,3.29
2022-12-07T13:26:05.385Z,3.09
2022-12-07T13:28:37.546Z,3.03
2022-12-07T13:31:15.759Z,3.03
2022-12-07T13:33:45.958Z,3.14
2022-12-07T13:36:21.476Z,3.24
2022-12-07T13:38:55.793Z,3.32
2022-12-07T13:41:24.511Z,3.19
2022-12-07T13:43:56.160Z,2.98
2022-12-07T13:46:28.632Z,2.89
2022-12-07T13:48:57.979Z,2.85
2022-12-07T13:51:29.048Z,2.68
2022-12-07T13:54:00.199Z,2.55
2022-12-07T13:56:31.190Z,2.42
2022-12-07T13:58:59.151Z,2.43
2022-12-07T14:01:27.486Z,2.34
2022-12-07T14:03:55.837Z,2.40
2022-12-07T14:06:29.214Z,2.26
2022-12-07T14:09:11.126Z,2.24
2022-12-07T14:11:39.847Z,2.22
2022-12-07T14:14:07.767Z,2.20
2022-12-07T14:16:37.513Z,2.22
2022-12-07T14:19:06.660Z,2.17
2022-12-07T14:21:36.753Z,2.19
2022-12-07T14:24:14.048Z,2.09
2022-12-07T14:26:42.404Z,2.14
2022-12-07T14:29:37.376Z,2.00
2022-12-07T14:32:23.768Z,1.94
2022-12-07T14:34:59.665Z,1.89
2022-12-07T14:37:29.413Z,1.77
2022-12-07T14:39:57.484Z,1.77
2022-12-07T14:42:28.557Z,1.69
2022-12-07T14:44:56.742Z,1.64
2022-12-07T14:50:14.620Z,1.61
2022-12-07T14:55:33.558Z,1.55
2022-12-07T14:58:02.363Z,1.48
2022-12-07T15:00:30.911Z,1.32
2022-12-07T15:02:59.085Z,1.36
2022-12-07T15:05:27.129Z,1.28
2022-12-07T15:07:56.512Z,1.29
2022-12-07T15:10:30.402Z,1.17
2022-12-07T15:13:18.537Z,1.24
2022-12-07T15:15:46.658Z,1.16
2022-12-07T15:18:14.657Z,1.13
2022-12-07T15:20:42.692Z,1.07
2022-12-07T15:23:12.036Z,0.98
2022-12-07T15:25:42.710Z,0.87
2022-12-07T15:28:10.678Z,0.82
2022-12-07T15:30:39.393Z,0.78
2022-12-07T15:33:07.448Z,0.70
2022-12-07T15:35:35.355Z,0.61
2022-12-07T15:38:03.849Z,0.55
2022-12-07T15:40:33.604Z,0.49
2022-12-07T15:43:01.469Z,0.52
2022-12-07T15:45:28.388Z,0.38
2022-12-07T15:50:44.977Z,0.27
2022-12-07T15:53:12.911Z,0.31
2022-12-07T15:55:42.727Z,0.28
2022-12-07T15:58:10.664Z,0.48
2022-12-07T16:00:38.565Z,0.47
2022-12-07T16:03:06.513Z,0.58
2022-12-07T16:05:34.470Z,0.54
2022-12-07T16:08:02.508Z,0.46
2022-12-07T16:10:30.484Z,0.49
2022-12-07T16:12:59.806Z,0.47
2022-12-07T16:15:28.011Z,0.52
2022-12-07T16:17:56.574Z,0.43
2022-12-07T16:20:24.497Z,0.39
2022-12-07T16:22:53.758Z,0.40
2022-12-07T16:25:21.678Z,0.42
2022-12-07T16:27:49.548Z,0.56
2022-12-07T16:30:19.198Z,0.48
2022-12-07T16:32:47.274Z,0.45
2022-12-07T16:35:15.182Z,0.47
2022-12-07T16:37:44.145Z,0.60
2022-12-07T16:40:13.441Z,0.61
2022-12-07T16:42:41.347Z,0.64
2022-12-07T16:45:10.068Z,0.66
2022-12-07T16:47:40.646Z,0.77
2022-12-07T16:50:09.697Z,0.72
2022-12-07T16:52:37.633Z,0.81
2022-12-07T16:55:06.374Z,0.90
2022-12-07T16:57:34.311Z,0.92
2022-12-07T17:00:02.244Z,0.92
2022-12-07T17:02:30.187Z,1.06
2022-12-07T17:04:59.419Z,1.05
2022-12-07T17:07:27.333Z,1.06
2022-12-07T17:09:55.395Z,1.07
2022-12-07T17:12:23.281Z,1.15
2022-12-07T17:15:08.887Z,1.21
2022-12-07T17:17:36.790Z,1.23
2022-12-07T17:20:07.365Z,1.25
2022-12-07T17:22:35.272Z,1.40
2022-12-07T17:25:03.413Z,1.30
2022-12-07T17:27:31.700Z,1.33
2022-12-07T17:29:59.626Z,1.16
2022-12-07T17:32:27.596Z,1.18
2022-12-07T17:34:55.604Z,1.22
2022-12-07T17:37:24.835Z,1.33
2022-12-07T17:39:54.623Z,1.17
2022-12-07T17:42:41.269Z,1.19
2022-12-07T17:45:12.016Z,1.18
2022-12-07T17:47:40.396Z,1.08
2022-12-07T17:50:09.702Z,1.28
2022-12-07T17:52:58.835Z,1.05
2022-12-07T17:55:26.970Z,1.14
2022-12-07T17:57:54.939Z,1.27
2022-12-07T18:00:23.035Z,1.20
2022-12-07T18:02:51.080Z,1.22
2022-12-07T18:05:19.064Z,1.18
2022-12-07T18:07:48.415Z,1.52
2022-12-07T18:10:16.555Z,1.61
2022-12-07T18:12:50.325Z,1.55
2022-12-07T18:15:19.935Z,1.48
2022-12-07T18:17:47.839Z,1.35
2022-12-07T18:20:15.740Z,1.17
2022-12-07T18:22:43.666Z,1.36
2022-12-07T18:25:12.938Z,1.35
2022-12-07T18:27:41.056Z,1.09
2022-12-07T18:30:10.733Z,1.17
2022-12-07T18:32:38.636Z,1.33
2022-12-07T18:35:07.767Z,1.32
2022-12-07T18:37:35.688Z,1.24
2022-12-07T18:40:03.609Z,1.12
2022-12-07T18:42:32.890Z,1.00
2022-12-07T18:45:01.068Z,0.97
2022-12-07T18:47:29.318Z,1.00
2022-12-07T18:49:57.249Z,1.02
2022-12-07T18:52:25.278Z,0.96
2022-12-07T18:54:53.659Z,0.92
2022-12-07T18:57:21.604Z,0.82
2022-12-07T18:59:50.893Z,0.88
2022-12-07T19:02:20.142Z,1.08
2022-12-07T19:04:48.133Z,1.04
2022-12-07T19:07:17.244Z,1.02
2022-12-07T19:09:45.306Z,1.06
2022-12-07T19:12:15.100Z,1.19
2022-12-07T19:14:43.166Z,1.06
2022-12-07T19:17:14.164Z,1.07
2022-12-07T19:19:43.390Z,1.03
2022-12-07T19:22:12.518Z,0.91
2022-12-07T19:24:40.472Z,0.97
2022-12-07T19:27:09.395Z,1.03
2022-12-07T19:29:37.315Z,1.04
2022-12-07T19:32:08.974Z,1.01
2022-12-07T19:34:39.004Z,1.07
2022-12-07T19:37:07.711Z,1.00
2022-12-07T19:39:35.635Z,0.91
2022-12-07T19:42:03.553Z,1.03
2022-12-07T19:44:33.771Z,0.95
2022-12-07T19:47:05.212Z,1.04
2022-12-07T19:49:35.267Z,1.10
2022-12-07T19:52:06.678Z,1.23
2022-12-07T19:54:34.782Z,1.04
2022-12-07T19:57:04.424Z,1.06
2022-12-07T19:59:32.852Z,0.88
2022-12-07T20:02:01.045Z,0.91
2022-12-07T20:04:32.538Z,0.99
2022-12-07T20:07:01.502Z,0.96
2022-12-07T20:09:30.781Z,1.02
2022-12-07T20:12:15.986Z,1.03
2022-12-07T20:14:43.898Z,1.06
2022-12-07T20:17:11.965Z,0.98
2022-12-07T20:19:40.319Z,1.14
2022-12-07T20:22:08.339Z,1.17
2022-12-07T20:24:37.886Z,1.06
2022-12-07T20:27:06.259Z,1.28
2022-12-07T20:29:34.450Z,1.38
2022-12-07T20:32:02.394Z,1.11
2022-12-07T20:34:30.354Z,1.15
2022-12-07T20:36:58.296Z,1.38
2022-12-07T20:39:26.350Z,1.28
2022-12-07T20:42:12.871Z,1.03
2022-12-07T20:44:40.888Z,0.91
2022-12-07T20:47:08.885Z,0.89
2022-12-07T20:49:36.819Z,0.91
2022-12-07T20:52:05.379Z,0.90
2022-12-07T20:54:33.267Z,0.95
2022-12-07T20:57:02.578Z,0.80
2022-12-07T20:59:30.677Z,0.76
2022-12-07T21:01:58.708Z,0.80
2022-12-07T21:04:26.807Z,0.74
2022-12-07T21:06:54.720Z,0.80
2022-12-07T21:09:26.936Z,0.70
2022-12-07T21:11:55.250Z,0.76
2022-12-07T21:14:24.728Z,0.87
2022-12-07T21:16:52.649Z,0.56
2022-12-07T21:19:20.565Z,0.61
2022-12-07T21:21:48.497Z,0.68
2022-12-07T21:24:16.372Z,0.84
2022-12-07T21:26:44.256Z,0.73
2022-12-07T21:29:12.285Z,0.62
2022-12-07T21:31:41.908Z,0.66
2022-12-07T21:34:09.866Z,0.51
2022-12-07T21:36:37.995Z,0.46
2022-12-07T21:39:06.220Z,0.48
2022-12-07T21:41:35.570Z,0.40
2022-12-07T21:44:07.153Z,0.41
2022-12-07T21:46:35.376Z,0.43
2022-12-07T21:49:06.540Z,0.44
2022-12-07T21:51:34.859Z,0.43
2022-12-07T21:54:04.809Z,0.45
2022-12-07T21:56:34.337Z,0.44
2022-12-07T21:59:03.823Z,0.37
2022-12-07T22:01:35.705Z,0.47
2022-12-07T22:04:06.081Z,0.50
2022-12-07T22:06:35.194Z,0.40
2022-12-07T22:09:03.784Z,0.44
2022-12-07T22:11:31.800Z,0.51
2022-12-07T22:14:17.321Z,0.44
2022-12-07T22:16:45.303Z,0.38
2022-12-07T22:19:14.546Z,0.38
2022-12-07T22:21:42.436Z,0.52
2022-12-07T22:24:11.479Z,0.62
2022-12-07T22:26:39.355Z,0.47
2022-12-07T22:29:07.310Z,0.48
2022-12-07T22:31:35.749Z,0.42
2022-12-07T22:34:03.686Z,0.30
2022-12-07T22:36:32.993Z,0.38
2022-12-07T22:39:01.908Z,0.41
2022-12-07T22:41:31.088Z,0.24
2022-12-07T22:43:59.451Z,0.28
2022-12-07T22:46:27.838Z,0.37
2022-12-07T22:48:55.856Z,0.37
2022-12-07T22:51:24.957Z,0.44
2022-12-07T22:53:55.298Z,0.29
2022-12-07T22:56:23.842Z,0.23
2022-12-07T22:58:51.819Z,0.08
2022-12-07T23:01:21.004Z,0.11
2022-12-07T23:03:49.170Z,0.09
2022-12-07T23:06:19.268Z,-0.02
2022-12-07T23:08:47.573Z,0.11
2022-12-07T23:11:37.871Z,0.04
2022-12-07T23:14:08.014Z,0.05
2022-12-07T23:16:36.035Z,0.11
2022-12-07T23:19:04.277Z,0.03
2022-12-07T23:21:32.528Z,0.15
2022-12-07T23:24:00.424Z,-0.09
2022-12-07T23:26:29.736Z,-0.16
2022-12-07T23:28:58.363Z,0.03
2022-12-07T23:31:27.238Z,0.21
2022-12-07T23:33:55.163Z,-0.11
2022-12-07T23:36:24.835Z,-0.12
2022-12-07T23:38:54.394Z,-0.28
2022-12-07T23:41:24.177Z,-0.35
2022-12-07T23:43:54.406Z,-0.28
2022-12-07T23:46:24.693Z,-0.23
2022-12-07T23:48:53.737Z,-0.31
2022-12-07T23:51:22.153Z,-0.34
2022-12-07T23:53:51.656Z,-0.38
2022-12-07T23:56:21.057Z,-0.70
2022-12-07T23:58:49.951Z,-0.77
